createdAt,value
2022-12-14T00:01:58.969Z,17.40
2022-12-14T00:04:27.919Z,17.40
2022-12-14T00:06:57.055Z,17.40
2022-12-14T00:09:26.043Z,17.40
2022-12-14T00:11:55.143Z,17.40
2022-12-14T00:14:24.368Z,17.40
2022-12-14T00:16:53.279Z,17.50
2022-12-14T00:19:22.434Z,17.50
2022-12-14T00:21:51.565Z,17.60
2022-12-14T00:24:20.773Z,17.60
2022-12-14T00:26:49.736Z,17.70
2022-12-14T00:29:18.753Z,17.70
2022-12-14T00:31:48.855Z,17.80
2022-12-14T00:34:18.521Z,17.90
2022-12-14T00:36:47.479Z,17.90
2022-12-14T00:39:16.407Z,18.00
2022-12-14T00:41:45.469Z,18.10
2022-12-14T00:44:14.422Z,18.20
2022-12-14T00:46:43.465Z,18.20
2022-12-14T00:49:13.089Z,18.30
2022-12-14T00:51:42.106Z,18.40
2022-12-14T00:54:11.426Z,18.50
2022-12-14T00:56:40.380Z,18.60
2022-12-14T00:59:09.580Z,18.70
2022-12-14T01:01:38.957Z,18.90
2022-12-14T01:04:20.575Z,19.00
2022-12-14T01:06:53.906Z,19.10
2022-12-14T01:09:25.328Z,19.20
2022-12-14T01:11:54.635Z,19.30
2022-12-14T01:14:24.350Z,19.40
2022-12-14T01:16:53.487Z,19.50
2022-12-14T01:19:25.524Z,19.60
2022-12-14T01:21:54.520Z,19.80
2022-12-14T01:24:23.972Z,19.90
2022-12-14T01:26:52.889Z,20.00
2022-12-14T01:29:21.991Z,20.10
2022-12-14T01:31:51.132Z,20.10
2022-12-14T01:34:20.214Z,20.20
2022-12-14T01:36:49.284Z,20.30
2022-12-14T01:39:18.428Z,20.40
2022-12-14T01:42:00.284Z,20.50
2022-12-14T01:44:29.163Z,20.70
2022-12-14T01:47:08.824Z,20.90
2022-12-14T01:49:50.317Z,21.00
2022-12-14T01:52:22.314Z,21.10
2022-12-14T01:54:57.244Z,21.20
2022-12-14T01:57:41.409Z,21.30
2022-12-14T02:00:14.305Z,21.40
2022-12-14T02:02:57.681Z,21.50
2022-12-14T02:05:27.406Z,21.60
2022-12-14T02:07:57.956Z,21.70
2022-12-14T02:10:29.488Z,21.80
2022-12-14T02:13:10.397Z,21.90
2022-12-14T02:15:40.553Z,22.00
2022-12-14T02:18:15.807Z,22.10
2022-12-14T02:21:07.452Z,22.20
2022-12-14T02:23:39.305Z,22.20
2022-12-14T02:26:34.230Z,22.40
2022-12-14T02:29:30.902Z,22.50
2022-12-14T02:32:28.646Z,22.60
2022-12-14T02:35:16.835Z,22.80
2022-12-14T02:38:02.735Z,22.80
2022-12-14T02:40:40.995Z,22.90
2022-12-14T02:43:30.854Z,23.00
2022-12-14T02:46:24.665Z,23.10
2022-12-14T02:49:14.817Z,23.20
2022-12-14T02:51:59.070Z,23.20
2022-12-14T02:54:41.762Z,23.40
2022-12-14T02:57:17.808Z,23.50
2022-12-14T03:00:48.318Z,23.50
2022-12-14T03:03:20.111Z,23.60
2022-12-14T03:06:03.526Z,23.70
2022-12-14T03:08:36.848Z,23.80
2022-12-14T03:11:08.131Z,24.00
2022-12-14T03:14:07.708Z,24.20
2022-12-14T03:16:44.482Z,24.30
2022-12-14T03:19:28.613Z,24.50
2022-12-14T03:22:18.590Z,24.60
2022-12-14T03:24:56.970Z,24.70
2022-12-14T03:27:50.850Z,24.70
2022-12-14T03:30:43.965Z,24.80
2022-12-14T03:33:14.926Z,24.90
2022-12-14T03:36:20.464Z,25.00
2022-12-14T03:38:55.679Z,25.10
2022-12-14T03:41:36.906Z,25.30
2022-12-14T03:44:15.698Z,25.30
2022-12-14T03:47:14.229Z,25.40
2022-12-14T03:50:02.913Z,25.50
2022-12-14T03:52:34.727Z,25.60
2022-12-14T03:55:22.234Z,25.70
2022-12-14T03:58:11.303Z,25.80
2022-12-14T04:01:10.705Z,25.80
2022-12-14T04:04:01.411Z,25.90
2022-12-14T04:06:30.363Z,25.90
2022-12-14T04:09:10.664Z,25.90
2022-12-14T04:12:05.109Z,25.90
2022-12-14T04:14:59.412Z,25.90
2022-12-14T04:17:50.806Z,26.00
2022-12-14T04:20:23.687Z,26.10
2022-12-14T04:23:00.520Z,26.10
2022-12-14T04:25:53.187Z,26.00
2022-12-14T04:28:49.870Z,26.00
2022-12-14T04:31:22.883Z,26.00
2022-12-14T04:33:56.367Z,26.00
2022-12-14T04:36:43.444Z,25.90
2022-12-14T04:39:23.820Z,25.90
2022-12-14T04:41:58.724Z,25.90
2022-12-14T04:44:39.380Z,25.90
2022-12-14T04:47:12.245Z,25.90
2022-12-14T04:49:53.255Z,25.90
2022-12-14T04:52:38.006Z,25.90
2022-12-14T04:55:25.400Z,25.90
2022-12-14T04:58:06.526Z,25.90
2022-12-14T05:00:45.510Z,26.00
2022-12-14T05:03:23.504Z,26.10
2022-12-14T05:06:12.462Z,26.10
2022-12-14T05:08:52.124Z,26.10
2022-12-14T05:11:54.890Z,26.10
2022-12-14T05:14:52.502Z,26.20
2022-12-14T05:17:21.791Z,26.20
2022-12-14T05:19:52.417Z,26.30
2022-12-14T05:22:21.858Z,26.30
2022-12-14T05:24:51.883Z,26.40
2022-12-14T05:27:20.869Z,26.40
2022-12-14T05:29:49.851Z,26.40
2022-12-14T05:32:18.885Z,26.40
2022-12-14T05:34:48.004Z,26.40
2022-12-14T05:37:18.569Z,26.50
2022-12-14T05:39:48.073Z,26.50
2022-12-14T05:42:17.865Z,26.50
2022-12-14T05:44:47.114Z,26.50
2022-12-14T05:47:16.296Z,26.50
2022-12-14T05:49:45.292Z,26.50
2022-12-14T05:52:21.498Z,26.60
2022-12-14T05:54:50.439Z,26.70
2022-12-14T05:57:19.607Z,26.70
2022-12-14T05:59:48.781Z,26.70
2022-12-14T06:02:17.963Z,26.70
2022-12-14T06:04:47.114Z,26.70
2022-12-14T06:07:16.379Z,26.80
2022-12-14T06:09:45.296Z,26.80
2022-12-14T06:12:14.497Z,26.90
2022-12-14T06:14:46.004Z,27.00
2022-12-14T06:17:15.303Z,27.00
2022-12-14T06:19:49.878Z,27.00
2022-12-14T06:22:20.250Z,27.10
2022-12-14T06:24:49.463Z,27.20
2022-12-14T06:27:18.457Z,27.20
2022-12-14T06:29:47.441Z,27.20
2022-12-14T06:32:16.377Z,27.30
2022-12-14T06:34:47.946Z,27.40
2022-12-14T06:37:17.162Z,27.40
2022-12-14T06:39:49.760Z,27.50
2022-12-14T06:42:23.219Z,27.50
2022-12-14T06:44:52.171Z,27.60
2022-12-14T06:47:21.085Z,27.60
2022-12-14T06:49:52.100Z,27.70
2022-12-14T06:52:26.489Z,27.70
2022-12-14T06:54:56.505Z,27.70
2022-12-14T06:57:25.432Z,27.80
2022-12-14T06:59:54.780Z,27.70
2022-12-14T07:02:24.021Z,27.70
2022-12-14T07:04:53.151Z,27.80
2022-12-14T07:07:22.146Z,27.80
2022-12-14T07:09:51.205Z,27.90
2022-12-14T07:12:20.288Z,27.90
2022-12-14T07:14:49.264Z,27.90
2022-12-14T07:17:18.289Z,27.80
2022-12-14T07:19:49.084Z,27.80
2022-12-14T07:22:18.277Z,27.90
2022-12-14T07:24:47.413Z,27.90
2022-12-14T07:27:19.326Z,28.00
2022-12-14T07:29:48.533Z,28.10
2022-12-14T07:32:17.510Z,28.20
2022-12-14T07:34:46.874Z,28.20
2022-12-14T07:37:16.249Z,28.30
2022-12-14T07:39:45.248Z,28.30
2022-12-14T07:42:14.231Z,28.40
2022-12-14T07:44:46.187Z,28.50
2022-12-14T07:47:16.809Z,28.50
2022-12-14T07:49:46.390Z,28.40
2022-12-14T07:52:17.879Z,28.40
2022-12-14T07:54:46.850Z,28.50
2022-12-14T07:57:15.785Z,28.40
2022-12-14T07:59:44.782Z,28.30
2022-12-14T08:02:13.818Z,28.30
2022-12-14T08:04:42.973Z,28.30
2022-12-14T08:07:12.122Z,28.30
2022-12-14T08:09:41.354Z,28.30
2022-12-14T08:12:10.323Z,28.30
2022-12-14T08:14:39.255Z,28.30
2022-12-14T08:17:08.416Z,28.30
2022-12-14T08:19:37.707Z,28.20
2022-12-14T08:22:06.692Z,28.20
2022-12-14T08:24:35.629Z,28.20
2022-12-14T08:27:04.640Z,28.10
2022-12-14T08:29:33.603Z,28.00
2022-12-14T08:32:02.588Z,28.00
2022-12-14T08:34:31.827Z,28.00
2022-12-14T08:37:00.831Z,28.00
2022-12-14T08:39:29.802Z,27.90
2022-12-14T08:41:58.780Z,27.90
2022-12-14T08:44:27.732Z,27.80
2022-12-14T08:46:56.793Z,27.80
2022-12-14T08:49:31.971Z,27.70
2022-12-14T08:52:01.397Z,27.70
2022-12-14T08:54:31.062Z,27.70
2022-12-14T08:57:00.140Z,27.60
2022-12-14T08:59:59.767Z,27.60
2022-12-14T09:02:18.366Z,27.50
2022-12-14T09:04:47.465Z,27.50
2022-12-14T09:07:16.554Z,27.50
2022-12-14T09:09:45.662Z,27.40
2022-12-14T09:12:14.625Z,27.30
2022-12-14T09:14:49.329Z,27.30
2022-12-14T09:17:19.314Z,27.20
2022-12-14T09:19:48.298Z,27.20
2022-12-14T09:22:17.369Z,27.10
2022-12-14T09:24:46.466Z,27.00
2022-12-14T09:27:15.377Z,26.90
2022-12-14T09:29:45.140Z,26.90
2022-12-14T09:32:14.112Z,26.80
2022-12-14T09:34:43.046Z,26.70
2022-12-14T09:37:12.469Z,26.60
2022-12-14T09:39:41.431Z,26.60
2022-12-14T09:42:19.650Z,26.50
2022-12-14T09:45:00.034Z,26.40
2022-12-14T09:47:55.298Z,26.30
2022-12-14T09:50:25.490Z,26.30
2022-12-14T09:52:58.347Z,26.20
2022-12-14T09:55:27.382Z,26.10
2022-12-14T09:58:21.163Z,26.00
2022-12-14T10:01:05.323Z,26.00
2022-12-14T10:03:49.246Z,25.90
2022-12-14T10:06:39.859Z,25.80
2022-12-14T10:09:43.855Z,25.80
2022-12-14T10:12:58.141Z,25.60
2022-12-14T10:15:49.246Z,25.60
2022-12-14T10:31:56.384Z,25.20
2022-12-14T10:34:31.162Z,25.20
2022-12-14T10:37:22.382Z,25.10
2022-12-14T10:40:19.737Z,25.00
2022-12-14T10:43:16.528Z,24.90
2022-12-14T10:45:45.559Z,24.90
2022-12-14T10:48:30.435Z,24.80
2022-12-14T10:51:08.349Z,24.80
2022-12-14T10:54:06.190Z,24.70
2022-12-14T10:56:37.363Z,24.60
2022-12-14T10:59:27.569Z,24.60
2022-12-14T11:02:12.284Z,24.50
2022-12-14T11:04:53.968Z,24.50
2022-12-14T11:07:34.662Z,24.40
2022-12-14T11:10:30.977Z,24.30
2022-12-14T11:13:08.823Z,24.30
2022-12-14T11:15:43.450Z,24.30
2022-12-14T11:18:18.337Z,24.20
2022-12-14T11:20:55.001Z,24.20
2022-12-14T11:23:31.480Z,24.10
2022-12-14T11:26:04.524Z,24.10
2022-12-14T11:28:37.505Z,24.00
2022-12-14T11:31:13.546Z,24.00
2022-12-14T11:33:51.315Z,23.90
2022-12-14T11:36:39.975Z,23.90
2022-12-14T11:39:14.939Z,23.80
2022-12-14T11:41:45.207Z,23.80
2022-12-14T11:44:29.623Z,23.80
2022-12-14T11:47:04.264Z,23.80
2022-12-14T11:49:45.386Z,23.80
2022-12-14T11:52:24.818Z,23.70
2022-12-14T11:55:02.859Z,23.70
2022-12-14T11:57:40.969Z,23.60
2022-12-14T12:00:31.217Z,23.60
2022-12-14T12:03:18.846Z,23.60
2022-12-14T12:05:48.559Z,23.50
2022-12-14T12:08:29.106Z,23.50
2022-12-14T12:11:02.498Z,23.50
2022-12-14T12:13:42.152Z,23.40
2022-12-14T12:16:24.674Z,23.40
2022-12-14T12:19:19.947Z,23.40
2022-12-14T12:21:49.340Z,23.30
2022-12-14T12:24:33.365Z,23.30
2022-12-14T12:27:13.057Z,23.30
2022-12-14T12:29:54.578Z,23.20
2022-12-14T12:32:39.188Z,23.20
2022-12-14T12:35:30.954Z,23.10
2022-12-14T12:38:07.976Z,23.10
2022-12-14T12:40:53.314Z,23.10
2022-12-14T12:43:43.665Z,23.00
2022-12-14T12:46:27.677Z,23.00
2022-12-14T12:49:13.695Z,22.90
2022-12-14T12:51:57.129Z,22.90
2022-12-14T12:54:52.246Z,22.80
2022-12-14T12:57:22.542Z,22.80
2022-12-14T12:59:55.814Z,22.70
2022-12-14T13:02:39.663Z,22.70
2022-12-14T13:05:45.075Z,22.70
2022-12-14T13:08:22.454Z,22.60
2022-12-14T13:13:46.747Z,22.50
2022-12-14T13:16:37.859Z,22.50
2022-12-14T13:19:52.713Z,22.40
2022-12-14T13:22:32.726Z,22.50
2022-12-14T13:25:12.350Z,22.40
2022-12-14T13:28:07.461Z,22.40
2022-12-14T13:31:00.760Z,22.40
2022-12-14T13:33:38.697Z,22.30
2022-12-14T13:36:48.787Z,22.30
2022-12-14T13:39:31.217Z,22.20
2022-12-14T13:42:28.448Z,22.20
2022-12-14T13:45:00.458Z,22.20
2022-12-14T13:47:55.089Z,22.10
2022-12-14T13:50:37.513Z,22.10
2022-12-14T13:53:13.461Z,22.00
2022-12-14T13:56:02.634Z,22.00
2022-12-14T13:58:42.717Z,21.90
2022-12-14T14:01:34.275Z,21.90
2022-12-14T14:04:24.810Z,21.90
2022-12-14T14:06:58.285Z,21.90
2022-12-14T14:09:36.125Z,21.80
2022-12-14T14:12:06.184Z,21.80
2022-12-14T14:15:05.527Z,21.80
2022-12-14T14:17:41.560Z,21.80
2022-12-14T14:20:35.001Z,21.70
2022-12-14T14:23:16.994Z,21.70
2022-12-14T14:26:10.976Z,21.70
2022-12-14T14:28:40.106Z,21.60
2022-12-14T14:31:09.660Z,21.60
2022-12-14T14:33:51.670Z,21.50
2022-12-14T14:36:37.446Z,21.50
2022-12-14T14:39:54.983Z,21.50
2022-12-14T14:42:24.098Z,21.40
2022-12-14T14:45:02.814Z,21.40
2022-12-14T14:47:42.672Z,21.30
2022-12-14T14:50:17.846Z,21.30
2022-12-14T14:52:58.941Z,21.30
2022-12-14T14:58:34.170Z,21.20
2022-12-14T15:01:10.023Z,21.20
2022-12-14T15:04:00.851Z,21.10
2022-12-14T15:06:42.493Z,21.10
2022-12-14T15:09:12.248Z,21.10
2022-12-14T15:11:53.622Z,21.10
2022-12-14T15:14:48.514Z,21.00
2022-12-14T15:17:20.723Z,21.00
2022-12-14T15:19:53.631Z,21.00
2022-12-14T15:22:48.799Z,21.00
2022-12-14T15:25:29.404Z,21.00
2022-12-14T15:28:03.111Z,21.00
2022-12-14T15:30:32.640Z,21.00
2022-12-14T15:33:11.422Z,21.00
2022-12-14T15:35:49.384Z,21.00
2022-12-14T15:38:32.002Z,20.90
2022-12-14T15:41:07.561Z,20.90
2022-12-14T15:43:36.533Z,20.90
2022-12-14T15:46:05.557Z,20.90
2022-12-14T15:48:37.407Z,20.80
2022-12-14T15:51:08.876Z,20.70
2022-12-14T15:53:50.805Z,20.70
2022-12-14T15:56:29.862Z,20.70
2022-12-14T15:59:05.797Z,20.60
2022-12-14T16:01:47.307Z,20.60
2022-12-14T16:04:23.197Z,20.60
2022-12-14T16:07:08.656Z,20.50
2022-12-14T16:09:51.250Z,20.40
2022-12-14T16:12:44.716Z,20.40
2022-12-14T16:15:22.226Z,20.40
2022-12-14T16:17:59.231Z,20.30
2022-12-14T16:20:33.610Z,20.30
2022-12-14T16:23:15.485Z,20.20
2022-12-14T16:26:01.170Z,20.20
2022-12-14T16:28:33.645Z,20.10
2022-12-14T16:31:22.979Z,20.10
2022-12-14T16:34:16.642Z,20.00
2022-12-14T16:37:08.012Z,20.00
2022-12-14T16:39:55.563Z,20.00
2022-12-14T16:42:27.513Z,19.90
2022-12-14T16:44:57.192Z,19.90
2022-12-14T16:47:36.189Z,19.80
2022-12-14T16:53:27.881Z,19.70
2022-12-14T16:56:07.438Z,19.70
2022-12-14T16:58:37.660Z,19.70
2022-12-14T17:01:09.918Z,19.70
2022-12-14T17:03:39.314Z,19.60
2022-12-14T17:06:09.285Z,19.60
2022-12-14T17:08:38.611Z,19.50
2022-12-14T17:11:07.851Z,19.60
2022-12-14T17:13:36.969Z,19.50
2022-12-14T17:16:08.863Z,19.50
2022-12-14T17:18:42.486Z,19.50
2022-12-14T17:21:20.251Z,19.50
2022-12-14T17:23:49.972Z,19.40
2022-12-14T17:26:25.180Z,19.40
2022-12-14T17:28:54.757Z,19.40
2022-12-14T17:31:26.253Z,19.30
2022-12-14T17:33:56.153Z,19.30
2022-12-14T17:36:26.417Z,19.20
2022-12-14T17:38:55.480Z,19.20
2022-12-14T17:41:28.873Z,19.10
2022-12-14T17:43:59.124Z,19.10
2022-12-14T17:46:28.435Z,19.10
2022-12-14T17:49:01.510Z,19.00
2022-12-14T17:51:34.455Z,19.00
2022-12-14T17:54:03.524Z,19.00
2022-12-14T17:56:32.660Z,18.90
2022-12-14T17:59:01.803Z,18.90
2022-12-14T18:01:30.856Z,18.90
2022-12-14T18:03:59.975Z,18.80
2022-12-14T18:06:28.961Z,18.80
2022-12-14T18:08:58.011Z,18.80
2022-12-14T18:11:31.100Z,18.80
2022-12-14T18:14:00.521Z,18.70
2022-12-14T18:16:29.767Z,18.70
2022-12-14T18:18:59.187Z,18.70
2022-12-14T18:21:30.788Z,18.70
2022-12-14T18:23:59.925Z,18.60
2022-12-14T18:26:29.363Z,18.60
2022-12-14T18:28:59.030Z,18.60
2022-12-14T18:31:35.969Z,18.60
2022-12-14T18:34:06.687Z,18.60
2022-12-14T18:36:35.637Z,18.50
2022-12-14T18:39:04.830Z,18.50
2022-12-14T18:41:34.553Z,18.50
2022-12-14T18:44:03.892Z,18.50
2022-12-14T18:46:32.989Z,18.50
2022-12-14T18:49:02.158Z,18.40
2022-12-14T18:51:31.206Z,18.40
2022-12-14T18:54:03.389Z,18.40
2022-12-14T18:56:32.367Z,18.40
2022-12-14T18:59:01.546Z,18.40
2022-12-14T19:01:30.668Z,18.40
2022-12-14T19:03:59.755Z,18.30
2022-12-14T19:06:45.506Z,18.30
2022-12-14T19:09:15.911Z,18.30
2022-12-14T19:11:46.121Z,18.30
2022-12-14T19:14:15.207Z,18.30
2022-12-14T19:16:44.272Z,18.30
2022-12-14T19:19:13.457Z,18.20
2022-12-14T19:21:42.494Z,18.20
2022-12-14T19:24:14.653Z,18.20
2022-12-14T19:26:43.645Z,18.20
2022-12-14T19:29:18.554Z,18.20
2022-12-14T19:31:51.742Z,18.20
2022-12-14T19:34:24.073Z,18.20
2022-12-14T19:36:53.150Z,18.20
2022-12-14T19:39:22.313Z,18.20
2022-12-14T19:41:51.356Z,18.20
2022-12-14T19:44:20.299Z,18.20
2022-12-14T19:46:49.556Z,18.20
2022-12-14T19:49:18.661Z,18.10
2022-12-14T19:51:47.695Z,18.10
2022-12-14T19:54:16.705Z,18.10
2022-12-14T19:56:51.283Z,18.20
2022-12-14T19:59:20.743Z,18.10
2022-12-14T20:01:50.140Z,18.20
2022-12-14T20:04:22.683Z,18.20
2022-12-14T20:06:51.772Z,18.20
2022-12-14T20:09:20.902Z,18.20
2022-12-14T20:11:49.937Z,18.10
2022-12-14T20:14:19.068Z,18.10
2022-12-14T20:16:48.113Z,18.00
2022-12-14T20:19:17.289Z,18.00
2022-12-14T20:21:46.590Z,18.00
2022-12-14T20:24:16.198Z,17.90
2022-12-14T20:26:46.435Z,17.90
2022-12-14T20:29:18.376Z,17.90
2022-12-14T20:31:47.689Z,17.80
2022-12-14T20:34:16.805Z,17.80
2022-12-14T20:36:45.790Z,17.80
2022-12-14T20:39:14.769Z,17.80
2022-12-14T20:41:44.615Z,17.70
2022-12-14T20:44:13.910Z,17.70
2022-12-14T20:46:45.988Z,17.70
2022-12-14T20:49:16.700Z,17.70
2022-12-14T20:51:47.711Z,17.70
2022-12-14T20:54:19.623Z,17.70
2022-12-14T20:56:49.481Z,17.70
2022-12-14T20:59:19.357Z,17.70
2022-12-14T21:01:55.105Z,17.70
2022-12-14T21:04:25.746Z,17.70
2022-12-14T21:06:54.920Z,17.70
2022-12-14T21:09:23.978Z,17.60
2022-12-14T21:12:11.221Z,17.60
2022-12-14T21:14:48.331Z,17.60
2022-12-14T21:17:17.370Z,17.60
2022-12-14T21:19:46.345Z,17.60
2022-12-14T21:22:18.839Z,17.60
2022-12-14T21:25:05.300Z,17.60
2022-12-14T21:27:36.178Z,17.60
2022-12-14T21:30:06.909Z,17.60
2022-12-14T21:32:38.462Z,17.60
2022-12-14T21:35:07.885Z,17.60
2022-12-14T21:37:39.967Z,17.60
2022-12-14T21:40:09.651Z,17.50
2022-12-14T21:42:38.599Z,17.50
2022-12-14T21:45:09.299Z,17.50
2022-12-14T21:47:38.299Z,17.50
2022-12-14T21:50:07.973Z,17.50
2022-12-14T21:52:39.240Z,17.50
2022-12-14T21:55:08.772Z,17.50
2022-12-14T21:57:57.925Z,17.40
2022-12-14T22:00:26.924Z,17.50
2022-12-14T22:02:56.810Z,17.50
2022-12-14T22:05:25.883Z,17.50
2022-12-14T22:07:55.065Z,17.50
2022-12-14T22:10:25.239Z,17.60
2022-12-14T22:12:54.819Z,17.50
2022-12-14T22:15:23.935Z,17.60
2022-12-14T22:17:53.309Z,17.60
2022-12-14T22:20:22.329Z,17.60
2022-12-14T22:22:51.326Z,17.60
2022-12-14T22:25:20.325Z,17.50
2022-12-14T22:27:49.695Z,17.50
2022-12-14T22:30:19.635Z,17.50
2022-12-14T22:32:49.163Z,17.50
2022-12-14T22:35:19.176Z,17.50
2022-12-14T22:37:48.530Z,17.50
2022-12-14T22:40:17.779Z,17.50
2022-12-14T22:42:46.703Z,17.50
2022-12-14T22:45:15.905Z,17.40
2022-12-14T22:47:45.343Z,17.40
2022-12-14T22:50:14.706Z,17.40
2022-12-14T22:52:43.726Z,17.40
2022-12-14T22:55:18.905Z,17.40
2022-12-14T22:57:49.212Z,17.40
2022-12-14T23:00:18.763Z,17.40
2022-12-14T23:02:49.014Z,17.40
2022-12-14T23:05:19.202Z,17.40
2022-12-14T23:07:48.679Z,17.40
2022-12-14T23:10:36.069Z,17.30
2022-12-14T23:13:23.294Z,17.30
2022-12-14T23:16:10.513Z,17.30
2022-12-14T23:18:57.652Z,17.30
2022-12-14T23:21:44.928Z,17.30
2022-12-14T23:24:33.001Z,17.30
2022-12-14T23:27:20.193Z,17.30
2022-12-14T23:30:07.084Z,17.30
2022-12-14T23:32:54.452Z,17.30
2022-12-14T23:35:41.490Z,17.30
2022-12-14T23:38:29.139Z,17.30
2022-12-14T23:41:20.782Z,17.20
2022-12-14T23:44:07.702Z,17.20
2022-12-14T23:46:54.985Z,17.10
2022-12-14T23:49:42.121Z,17.10
2022-12-14T23:52:29.334Z,17.10
2022-12-14T23:55:16.249Z,17.00
2022-12-14T23:58:03.339Z,17.00
